Etusivu
METAR-TAF:

METAR-TAF

Lentoasemat :

Namsos, Norja

Leveyspiiri: 64-28N, Pituuspiiri: 011-35E, korkeus merenpinnasta: 0 m

Tämänhetkinen sää

Tämä raportti tehtiin 16 tuntia ja 48 minuuttia sitten, kello 08.50 UTC
Tuuli 11 kn idästä/koillisesta
Lämpötila -1°C
Kosteus 86%
Ilmanpaine 1019 hPa
Näkyvyys 10 km tai enemmän
Muutamia pilviä 800 ft:n korkeudessa
Hajonneita pilviä 1500 ft:n korkeudessa
heikkoja lumikuuroja

METAR: ENNM 170850Z 06011KT 9999 -SHSN FEW008 BKN015 M01/M03 Q1019

Aika: 02:38 (01:38 UTC)


TAF: puuttuu

Säähavainnot ja -ennusteet yli 4000 lentoasemalta (METAR- ja TAF-raportit).

Käytössä olevat sääasemat on merkitty karttaan keltaisilla ja punaisilla pisteillä.

Aseta hiiri pisteen päälle nähdäksesi sääaseman nimen.

Klikkaa sitten nähdäksesi säähavainnot ja -ennusteet.

Kartan vaihtaminen: klikkaa mustalla rastilla varustettuja vihreitä pisteitä, niin voit zoomata sisään; viivalla varustettua vihreää pistettä, niin voit zoomata ulos tai vihreitä nuolia, niin pääset viereisille kartoille.


METAR-TAF: